Dades meteomassalio
Diari Summary for Agost 30, 2017 Units:  English    Metric   Both
« Previous Day
Next Day »
Diari Semanal Mensual Anual Personalitzat
  Maxima: Minima: Mijana:
Temperatura: TemperatureC °F 16.7 °F 20.9 °F
Rosada: DewpointC °F 12.1 °F 15 °F
Humitat: Humidity % 44 % 71 %
Velocitat del vent: WindSpeedKMH mph 0.0 mph 6.3 mph
Racha vent: WindSpeedGustKMH mph - -
Vent:- - SSE
Pressio: PressurehPa in 1013.8 in -
Pluja: 30.5 in    
Historical Graphs
 
 
Tabular Data for Agost 30, 2017
Time Temperature Dew Point Pressure Wind Wind Speed Wind Gust Humidity Rainfall Rate (Hourly) solar Conditions
TemperatureC °F DewpointC °F PressurehPa in Calm     Humidity % HourlyPrecipMM in SolarRadiationWatts/m^2 W/m2 Conditions
00:01 18.3 °F 12.1 °F 1016.5 in Calm     67 % 0.0 in 0.0 W/m2 RA
00:06 18.3 °F 12.1 °F 1016.8 in Calm     67 % 0.0 in 0.0 W/m2 CLR
00:11 18.3 °F 12.8 °F 1017.2 in Calm     70 % 0.0 in 0.0 W/m2 CLR
00:16 18.3 °F 13.2 °F 1017.2 in NW 5.6 mph   72 % 0.0 in 0.0 W/m2 CLR
00:21 17.8 °F 12.7 °F 1017.2 in Calm     72 % 0.0 in 0.0 W/m2 CLR
00:26 17.8 °F 12.9 °F 1017.2 in Calm     73 % 0.0 in 0.0 W/m2 CLR
00:31 17.8 °F 12.9 °F 1017.2 in Calm     73 % 0.0 in 0.0 W/m2 CLR
00:36 17.8 °F 12.9 °F 1017.2 in Calm     73 % 0.0 in 0.0 W/m2 CLR
00:41 17.8 °F 13.1 °F 1016.8 in Calm     74 % 0.0 in 0.0 W/m2 CLR
00:47 17.8 °F 13.3 °F 1016.8 in Calm     75 % 0.0 in 0.0 W/m2 CLR
00:52 17.8 °F 13.3 °F 1016.8 in Calm     75 % 0.0 in 0.0 W/m2 CLR
00:57 17.8 °F 13.7 °F 1016.8 in Calm     77 % 0.0 in 0.0 W/m2 CLR
01:02 17.8 °F 13.7 °F 1016.8 in Calm     77 % 0.0 in 0.0 W/m2 CLR
01:07 17.8 °F 13.5 °F 1016.8 in Calm     76 % 0.0 in 0.0 W/m2 CLR
01:12 17.8 °F 13.5 °F 1016.8 in Calm     76 % 0.0 in 0.0 W/m2 CLR
01:17 17.8 °F 13.5 °F 1017.2 in SSW 8.0 mph 8.0 mph 76 % 0.0 in 0.0 W/m2 CLR
01:22 18.3 °F 13.8 °F 1017.8 in South 1.9 mph 1.9 mph 75 % 0.0 in 0.0 W/m2 CLR
01:27 18.3 °F 13.8 °F 1017.8 in Calm     75 % 0.0 in 0.0 W/m2 CLR
01:32 18.9 °F 14.6 °F 1017.8 in SSE 14.8 mph 14.8 mph 76 % 0.0 in 0.0 W/m2 CLR
01:37 18.9 °F 14.6 °F 1017.8 in Calm     76 % 0.0 in 0.0 W/m2 CLR
01:42 18.9 °F 14.3 °F 1017.8 in Calm     75 % 0.0 in 0.0 W/m2 CLR
01:47 18.9 °F 14.6 °F 1017.5 in Calm     76 % 0.0 in 0.0 W/m2 CLR
01:52 18.3 °F 13.8 °F 1017.8 in Calm     75 % 0.0 in 0.0 W/m2 CLR
01:57 18.3 °F 13.8 °F 1017.8 in Calm     75 % 0.0 in 0.0 W/m2 CLR
02:02 18.3 °F 13.8 °F 1018.2 in Calm     75 % 0.0 in 0.0 W/m2 CLR
02:03 18.3 °F 14.0 °F 1018.2 in Calm     76 % 0.0 in 0.0 W/m2 CLR
02:08 18.3 °F 14.0 °F 1017.8 in Calm     76 % 0.0 in 0.0 W/m2 CLR
02:13 18.3 °F 14.0 °F 1017.8 in ENE 3.7 mph 3.7 mph 76 % 0.0 in 0.0 W/m2 CLR
02:18 17.8 °F 13.7 °F 1017.8 in NE 3.2 mph 3.2 mph 77 % 0.0 in 0.0 W/m2 CLR
02:23 17.8 °F 13.9 °F 1017.8 in SSW 5.6 mph 5.6 mph 78 % 0.0 in 0.0 W/m2 CLR
02:28 17.8 °F 13.7 °F 1017.8 in Calm     77 % 0.0 in 0.0 W/m2 CLR
02:33 17.8 °F 13.7 °F 1017.8 in Calm     77 % 0.0 in 0.0 W/m2 CLR
02:38 17.8 °F 13.9 °F 1017.8 in Calm     78 % 0.0 in 0.0 W/m2 CLR
02:43 17.8 °F 13.9 °F 1017.8 in Calm     78 % 0.0 in 0.0 W/m2 CLR
02:48 17.8 °F 13.9 °F 1017.8 in Calm     78 % 0.0 in 0.0 W/m2 CLR
02:58 17.8 °F 14.3 °F 1018.2 in Calm     80 % 0.0 in 0.0 W/m2 CLR
03:03 17.8 °F 14.5 °F 1018.5 in Calm     81 % 0.0 in 0.0 W/m2 CLR
03:08 17.8 °F 14.1 °F 1018.8 in ESE 19.3 mph 19.3 mph 79 % 0.0 in 0.0 W/m2 CLR
03:13 18.9 °F 13.9 °F 1018.8 in SE 20.4 mph 20.4 mph 73 % 0.0 in 0.0 W/m2 CLR
03:18 19.4 °F 14.1 °F 1018.8 in ESE 22.2 mph 22.2 mph 71 % 0.0 in 0.0 W/m2 CLR
03:23 18.9 °F 13.9 °F 1018.5 in SE 5.6 mph 5.6 mph 73 % 0.0 in 0.0 W/m2 CLR
03:28 18.9 °F 14.3 °F 1018.5 in ESE 14.5 mph 14.5 mph 75 % 0.3 in 0.0 W/m2 RA
03:33 18.9 °F 14.3 °F 1018.5 in ESE 14.8 mph 14.8 mph 75 % 0.3 in 0.0 W/m2 CLR
03:38 18.3 °F 14.0 °F 1018.2 in ESE 20.9 mph 20.9 mph 76 % 0.3 in 0.0 W/m2 CLR
03:43 18.3 °F 13.8 °F 1018.2 in East 31.5 mph 31.5 mph 75 % 0.5 in 0.0 W/m2 RA
03:48 18.3 °F 14.0 °F 1017.8 in East 24.1 mph 24.1 mph 76 % 0.5 in 0.0 W/m2
03:53 17.8 °F 13.7 °F 1017.8 in East 20.4 mph 20.4 mph 77 % 0.5 in 0.0 W/m2 CLR
03:58 17.8 °F 13.9 °F 1017.5 in ENE 11.3 mph 11.3 mph 78 % 0.5 in 0.0 W/m2 CLR
04:03 17.2 °F 13.6 °F 1017.2 in ENE 13.0 mph 13.0 mph 79 % 0.5 in 0.0 W/m2 CLR
04:08 17.2 °F 13.6 °F 1016.8 in NNW 9.3 mph   79 % 0.5 in 0.0 W/m2 CLR
04:13 17.2 °F 13.9 °F 1016.8 in ESE 16.7 mph 16.7 mph 81 % 0.5 in 0.0 W/m2 CLR
04:18 17.2 °F 13.7 °F 1016.5 in ENE 18.5 mph 18.5 mph 80 % 0.5 in 0.0 W/m2 CLR
04:23 17.2 °F 13.6 °F 1016.1 in ENE 29.0 mph 29.0 mph 79 % 0.5 in 0.0 W/m2 CLR
04:28 17.2 °F 13.2 °F 1015.8 in ENE 24.1 mph 24.1 mph 77 % 0.3 in 0.0 W/m2 CLR
04:33 17.8 °F 13.5 °F 1015.5 in East 22.2 mph 22.2 mph 76 % 0.3 in 0.0 W/m2 CLR
04:34 17.8 °F 13.5 °F 1015.5 in East 20.4 mph 20.4 mph 76 % 0.3 in 0.0 W/m2 CLR
04:39 17.8 °F 13.3 °F 1015.8 in East 24.1 mph 24.1 mph 75 % 0.3 in 0.0 W/m2 CLR
04:44 18.3 °F 13.4 °F 1015.5 in East 20.4 mph 20.4 mph 73 % 0.0 in 0.0 W/m2 CLR
04:49 18.9 °F 13.5 °F 1015.5 in SSE 16.7 mph 16.7 mph 71 % 0.0 in 0.0 W/m2 CLR
04:54 18.9 °F 13.7 °F 1015.8 in SSE 9.3 mph 9.3 mph 72 % 0.0 in 0.0 W/m2 CLR
04:59 18.3 °F 13.6 °F 1016.5 in SSW 18.5 mph 18.5 mph 74 % 0.0 in 0.0 W/m2 CLR
05:04 18.3 °F 13.0 °F 1016.5 in South 25.9 mph 25.9 mph 71 % 0.0 in 0.0 W/m2 CLR
05:10 18.9 °F 13.5 °F 1016.8 in SE 11.1 mph   71 % 0.0 in 0.0 W/m2 CLR
05:15 18.9 °F 13.5 °F 1017.2 in South 20.9 mph 20.9 mph 71 % 0.0 in 0.0 W/m2 CLR
05:20 18.9 °F 13.5 °F 1017.2 in South 18.5 mph 18.5 mph 71 % 0.0 in 0.0 W/m2 CLR
05:25 18.9 °F 13.7 °F 1016.8 in SSW 13.0 mph 13.0 mph 72 % 0.0 in 0.0 W/m2 CLR
05:30 18.3 °F 13.2 °F 1016.8 in South 7.4 mph 7.4 mph 72 % 0.0 in 0.0 W/m2 CLR
05:35 18.3 °F 13.2 °F 1016.5 in Calm     72 % 0.0 in 0.0 W/m2 CLR
05:40 17.8 °F 12.9 °F 1016.8 in Calm     73 % 0.0 in 0.0 W/m2 CLR
05:45 17.2 °F 12.3 °F 1016.5 in Calm     73 % 0.0 in 0.0 W/m2 CLR
05:50 17.2 °F 12.6 °F 1016.5 in Calm     74 % 0.0 in 0.0 W/m2 CLR
05:55 17.2 °F 12.7 °F 1016.8 in Calm     75 % 0.0 in 0.0 W/m2 CLR
06:00 16.7 °F 12.4 °F 1016.5 in Calm     76 % 0.0 in 0.0 W/m2 CLR
06:05 16.7 °F 12.4 °F 1016.5 in Calm     76 % 0.0 in 0.0 W/m2 CLR
06:10 16.7 °F 12.4 °F 1016.5 in Calm     76 % 0.0 in 0.0 W/m2 CLR
06:15 16.7 °F 12.6 °F 1016.8 in Calm     77 % 0.0 in 0.0 W/m2 CLR
06:20 16.7 °F 13.0 °F 1016.8 in Calm     79 % 0.0 in 0.0 W/m2 CLR
06:25 16.7 °F 13.0 °F 1017.2 in Calm     79 % 0.0 in 0.0 W/m2 CLR
06:30 16.7 °F 12.6 °F 1017.2 in ESE 3.7 mph   77 % 0.0 in 0.0 W/m2 CLR
06:35 17.2 °F 12.6 °F 1016.8 in Calm     74 % 0.0 in 0.0 W/m2 CLR
06:40 17.2 °F 12.7 °F 1016.8 in ENE 5.6 mph 5.6 mph 75 % 0.0 in 0.0 W/m2 CLR
06:45 17.2 °F 12.9 °F 1016.8 in Calm     76 % 0.0 in 0.0 W/m2 CLR
06:50 17.2 °F 12.9 °F 1016.8 in Calm     76 % 0.0 in 0.0 W/m2 CLR
06:55 17.2 °F 12.9 °F 1016.8 in Calm     76 % 0.0 in 0.0 W/m2 CLR
07:00 17.2 °F 13.2 °F 1016.8 in Calm     77 % 0.0 in 0.0 W/m2 CLR
07:05 17.2 °F 13.2 °F 1016.8 in Calm     77 % 0.0 in 0.0 W/m2 CLR
07:10 17.2 °F 13.2 °F 1016.8 in North 4.8 mph   77 % 0.0 in 0.0 W/m2 CLR
07:15 17.2 °F 13.3 °F 1016.8 in Calm     78 % 0.0 in 0.0 W/m2 OVC
07:20 17.2 °F 13.3 °F 1016.8 in Calm     78 % 0.0 in 0.0 W/m2 OVC
07:25 17.2 °F 13.6 °F 1017.2 in Calm     79 % 0.0 in 0.0 W/m2 OVC
07:30 16.7 °F 13.2 °F 1017.5 in Calm     80 % 0.0 in 0.0 W/m2 OVC
07:35 16.7 °F 13.0 °F 1017.5 in Calm     79 % 0.0 in 7.0 W/m2 BKN
07:40 16.7 °F 13.0 °F 1017.5 in Calm     79 % 0.0 in 11.0 W/m2 BKN
07:45 16.7 °F 13.0 °F 1017.5 in Calm     79 % 0.0 in 12.0 W/m2 BKN
07:50 16.7 °F 13.0 °F 1017.5 in Calm     79 % 0.0 in 14.0 W/m2 BKN
07:55 16.7 °F 13.0 °F 1017.5 in Calm     79 % 0.0 in 18.0 W/m2 BKN
08:00 16.7 °F 13.2 °F 1017.8 in Calm     80 % 0.0 in 19.0 W/m2 BKN
08:05 16.7 °F 13.4 °F 1017.8 in Calm     81 % 0.0 in 30.0 W/m2 BKN
08:10 16.7 °F 13.4 °F 1017.5 in Calm     81 % 0.0 in 44.0 W/m2 BKN
08:15 16.7 °F 13.6 °F 1017.5 in Calm     82 % 0.0 in 37.0 W/m2 BKN
08:20 17.2 °F 13.7 °F 1017.5 in Calm     80 % 0.0 in 26.0 W/m2 BKN
08:25 17.2 °F 13.9 °F 1017.2 in Calm     81 % 0.0 in 33.0 W/m2 BKN
08:30 17.2 °F 13.7 °F 1017.2 in Calm     80 % 0.0 in 35.0 W/m2 BKN
08:35 17.2 °F 13.7 °F 1017.2 in Calm     80 % 0.0 in 35.0 W/m2 BKN
08:40 17.2 °F 13.9 °F 1017.5 in Calm     81 % 0.0 in 54.0 W/m2 BKN
08:45 17.8 °F 14.3 °F 1017.2 in Calm     80 % 0.0 in 176.0 W/m2 SCT
08:50 18.3 °F 15.0 °F 1016.8 in Calm     81 % 0.0 in 232.0 W/m2 CLR
08:55 18.3 °F 14.8 °F 1017.2 in Calm     80 % 0.0 in 98.0 W/m2 CLR
09:00 18.9 °F 15.2 °F 1017.2 in Calm     79 % 0.0 in 107.0 W/m2 CLR
09:05 18.9 °F 15.2 °F 1017.2 in Calm     79 % 0.0 in 76.0 W/m2 CLR
09:10 18.9 °F 15.2 °F 1016.8 in Calm     79 % 0.0 in 111.0 W/m2 CLR
09:11 18.9 °F 15.2 °F 1017.2 in Calm     79 % 0.0 in 111.0 W/m2 CLR
09:16 19.4 °F 15.5 °F 1017.2 in Calm     78 % 0.0 in 258.0 W/m2 CLR
09:21 19.4 °F 15.1 °F 1016.8 in Calm     76 % 0.0 in 274.0 W/m2 CLR
09:26 19.4 °F 15.1 °F 1016.8 in Calm     76 % 0.0 in 306.0 W/m2 CLR
09:32 19.4 °F 14.9 °F 1016.5 in Calm     75 % 0.0 in 62.0 W/m2 CLR
09:37 19.4 °F 14.9 °F 1016.8 in Calm     75 % 0.0 in 325.0 W/m2 FEW
09:42 19.4 °F 14.7 °F 1016.8 in Calm     74 % 0.0 in 353.0 W/m2 FEW
09:47 20.0 °F 14.8 °F 1017.2 in ESE 9.7 mph 9.7 mph 72 % 0.0 in 339.0 W/m2 CLR
09:49 20.6 °F 15.1 °F 1017.2 in SE 14.5 mph 14.5 mph 71 % 0.0 in 357.0 W/m2 CLR
09:54 21.1 °F 15.2 °F 1017.2 in ESE 6.4 mph 6.4 mph 69 % 0.0 in 388.0 W/m2 CLR
09:59 21.7 °F 15.5 °F 1016.8 in East 13.0 mph 13.0 mph 68 % 0.0 in 415.0 W/m2 CLR
10:04 21.7 °F 15.3 °F 1016.8 in ENE 14.8 mph 14.8 mph 67 % 0.0 in 420.0 W/m2 CLR
10:09 22.2 °F 15.8 °F 1016.8 in ENE 13.0 mph 13.0 mph 67 % 0.0 in 431.0 W/m2 CLR
10:14 22.2 °F 16.1 °F 1016.8 in ESE 9.3 mph 9.3 mph 68 % 0.0 in 434.0 W/m2 CLR
10:19 22.2 °F 15.6 °F 1016.8 in ESE 11.1 mph 11.1 mph 66 % 0.0 in 461.0 W/m2 CLR
10:24 22.8 °F 15.8 °F 1016.8 in East 11.3 mph 11.3 mph 65 % 0.0 in 485.0 W/m2 CLR
10:25 22.8 °F 15.8 °F 1016.8 in East 11.3 mph 11.3 mph 65 % 0.0 in 485.0 W/m2 CLR
10:30 22.8 °F 15.6 °F 1016.8 in SE 16.7 mph 16.7 mph 64 % 0.0 in 501.0 W/m2 CLR
10:35 23.3 °F 16.1 °F 1016.8 in Calm     64 % 0.0 in 513.0 W/m2 CLR
10:40 23.3 °F 15.7 °F 1016.8 in ESE 9.3 mph   62 % 0.0 in 526.0 W/m2 CLR
10:45 23.3 °F 15.4 °F 1016.8 in Calm     61 % 0.0 in 554.0 W/m2 CLR
10:50 23.9 °F 16.2 °F 1016.5 in Calm   0.5 mph 62 % 0.0 in 515.0 W/m2 CLR
10:55 23.9 °F 15.7 °F 1016.5 in Calm     60 % 0.0 in 492.0 W/m2 CLR
11:00 23.9 °F 15.7 °F 1016.5 in Calm     60 % 0.0 in 594.0 W/m2 CLR
11:05 24.4 °F 15.9 °F 1016.5 in SW 11.1 mph 11.1 mph 59 % 0.0 in 626.0 W/m2 CLR
11:10 24.4 °F 14.6 °F 1016.5 in SW 5.6 mph   54 % 0.0 in 626.0 W/m2 CLR
11:15 25.0 °F 14.8 °F 1016.5 in SE 1.9 mph 1.9 mph 53 % 0.0 in 399.0 W/m2 CLR
11:20 25.0 °F 14.8 °F 1016.1 in Calm     53 % 0.0 in 461.0 W/m2 CLR
11:25 25.0 °F 14.8 °F 1016.1 in SSE 3.7 mph 3.7 mph 53 % 0.0 in 545.0 W/m2 CLR
11:30 25.0 °F 14.4 °F 1016.1 in Calm   1.3 mph 52 % 0.0 in 622.0 W/m2 CLR
11:35 25.6 °F 15.3 °F 1016.5 in SSW 5.6 mph 5.6 mph 53 % 0.0 in 724.0 W/m2 CLR
11:40 26.1 °F 15.5 °F 1016.5 in South 11.3 mph 11.3 mph 52 % 0.0 in 710.0 W/m2 CLR
11:45 26.1 °F 15.5 °F 1016.5 in SSW 20.4 mph 20.4 mph 52 % 0.0 in 429.0 W/m2 CLR
11:50 26.1 °F 15.8 °F 1016.5 in WSW 7.4 mph 7.4 mph 53 % 0.0 in 717.0 W/m2 CLR
11:55 26.1 °F 15.5 °F 1016.5 in SSW 14.5 mph 14.5 mph 52 % 0.0 in 807.0 W/m2 CLR
12:00 26.1 °F 15.2 °F 1016.5 in South 13.0 mph 13.0 mph 51 % 0.0 in 828.0 W/m2 CLR
12:05 26.1 °F 15.5 °F 1016.5 in WSW 18.5 mph 18.5 mph 52 % 0.0 in 357.0 W/m2 CLR
12:10 25.6 °F 14.9 °F 1016.5 in SSW 14.8 mph 14.8 mph 52 % 0.0 in 338.0 W/m2 CLR
12:15 25.6 °F 14.9 °F 1016.5 in SSW 16.7 mph 16.7 mph 52 % 0.0 in 369.0 W/m2 CLR
12:20 25.6 °F 14.7 °F 1016.5 in South 13.0 mph 13.0 mph 51 % 0.0 in 707.0 W/m2 CLR
12:25 26.1 °F 15.2 °F 1016.5 in Calm     51 % 0.0 in 626.0 W/m2 CLR
12:30 26.1 °F 15.8 °F 1016.5 in WSW 13.0 mph 13.0 mph 53 % 0.0 in 475.0 W/m2 CLR
12:35 26.1 °F 15.5 °F 1016.1 in SSW 9.3 mph 9.3 mph 52 % 0.0 in 548.0 W/m2 CLR
12:40 26.7 °F 15.7 °F 1016.1 in SW 11.1 mph 11.1 mph 51 % 0.0 in 786.0 W/m2 CLR
12:45 26.7 °F 16.0 °F 1016.1 in WSW 24.1 mph 24.1 mph 52 % 0.0 in 879.0 W/m2 CLR
12:50 26.7 °F 15.7 °F 1016.1 in West 14.8 mph 14.8 mph 51 % 0.0 in 856.0 W/m2 CLR
12:55 26.7 °F 16.0 °F 1016.1 in WSW 20.4 mph 20.4 mph 52 % 0.0 in 828.0 W/m2 CLR
13:00 26.7 °F 15.7 °F 1016.1 in WNW 9.3 mph 9.3 mph 51 % 0.0 in 819.0 W/m2 CLR
13:05 26.7 °F 16.0 °F 1015.8 in WSW 16.7 mph 16.7 mph 52 % 0.0 in 772.0 W/m2 CLR
13:10 26.1 °F 15.2 °F 1015.8 in SW 3.7 mph   51 % 0.0 in 796.0 W/m2 CLR
13:15 26.7 °F 15.4 °F 1015.8 in NW 12.9 mph 12.9 mph 50 % 0.0 in 788.0 W/m2 CLR
13:20 26.7 °F 15.4 °F 1015.8 in WSW 8.0 mph 8.0 mph 50 % 0.0 in 782.0 W/m2 CLR
13:25 26.7 °F 15.7 °F 1015.8 in SW 7.4 mph 7.4 mph 51 % 0.0 in 807.0 W/m2 CLR
13:30 26.7 °F 14.7 °F 1015.8 in West 11.1 mph   48 % 0.0 in 823.0 W/m2 CLR
13:35 27.2 °F 15.3 °F 1015.8 in Calm     48 % 0.0 in 824.0 W/m2 CLR
13:41 27.2 °F 15.3 °F 1015.8 in Calm     48 % 0.0 in 863.0 W/m2 CLR
13:46 27.8 °F 15.4 °F 1015.5 in Calm     47 % 0.0 in 954.0 W/m2 CLR
13:51 27.8 °F 15.4 °F 1015.5 in Calm     47 % 0.0 in 926.0 W/m2 CLR
13:56 27.2 °F 15.3 °F 1015.5 in Calm     48 % 0.0 in 974.0 W/m2 CLR
14:01 27.2 °F 14.6 °F 1015.5 in Calm     46 % 0.0 in 875.0 W/m2 CLR
14:06 27.2 °F 14.9 °F 1015.1 in NNE 7.4 mph 7.4 mph 47 % 0.0 in 766.0 W/m2 CLR
14:11 27.2 °F 14.9 °F 1015.1 in North 3.7 mph   47 % 0.0 in 671.0 W/m2 CLR
14:16 27.2 °F 15.3 °F 1015.1 in Calm     48 % 0.0 in 858.0 W/m2 CLR
14:21 27.8 °F 15.1 °F 1015.1 in Calm     46 % 0.0 in 805.0 W/m2 CLR
14:26 27.8 °F 15.4 °F 1015.1 in Calm     47 % 0.0 in 858.0 W/m2 CLR
14:31 27.8 °F 15.4 °F 1015.1 in North 9.3 mph 9.3 mph 47 % 0.0 in 643.0 W/m2 CLR
14:36 27.2 °F 14.9 °F 1015.1 in West 16.7 mph 16.7 mph 47 % 0.0 in 888.0 W/m2 CLR
14:41 27.8 °F 15.1 °F 1014.8 in NNW 14.8 mph 14.8 mph 46 % 0.0 in 861.0 W/m2 CLR
14:46 27.8 °F 14.8 °F 1015.1 in NW 18.5 mph 18.5 mph 45 % 0.0 in 837.0 W/m2 CLR
14:51 27.8 °F 14.8 °F 1015.1 in West 5.6 mph 5.6 mph 45 % 0.0 in 856.0 W/m2 CLR
14:56 27.8 °F 15.4 °F 1015.1 in NNW 9.3 mph 9.3 mph 47 % 0.0 in 817.0 W/m2 CLR
15:01 27.8 °F 14.8 °F 1015.1 in North 14.8 mph 14.8 mph 45 % 0.0 in 724.0 W/m2 CLR
15:06 27.8 °F 15.1 °F 1015.1 in NE 9.3 mph 9.3 mph 46 % 0.0 in 847.0 W/m2 CLR
15:11 27.8 °F 15.1 °F 1014.8 in NNE 9.3 mph 9.3 mph 46 % 0.0 in 584.0 W/m2 CLR
15:16 27.8 °F 14.8 °F 1014.8 in NNE 7.4 mph 7.4 mph 45 % 0.0 in 763.0 W/m2 CLR
15:21 28.3 °F 14.9 °F 1014.8 in NNE 5.6 mph 5.6 mph 44 % 0.0 in 821.0 W/m2 CLR
15:26 28.3 °F 15.6 °F 1014.8 in Calm     46 % 0.0 in 731.0 W/m2 CLR
15:31 28.3 °F 15.6 °F 1014.8 in NW 13.0 mph 13.0 mph 46 % 0.0 in 765.0 W/m2 CLR
15:32 28.3 °F 15.3 °F 1014.8 in West 7.4 mph   45 % 0.0 in 765.0 W/m2 CLR
15:37 27.8 °F 15.1 °F 1014.8 in WNW 13.0 mph 13.0 mph 46 % 0.0 in 417.0 W/m2 CLR
15:42 27.8 °F 14.8 °F 1014.4 in NW 12.9 mph 12.9 mph 45 % 0.0 in 824.0 W/m2 CLR
15:47 28.3 °F 15.6 °F 1014.4 in WNW 7.4 mph 7.4 mph 46 % 0.0 in 810.0 W/m2 CLR
15:52 28.3 °F 15.3 °F 1014.4 in NW 9.7 mph 9.7 mph 45 % 0.0 in 800.0 W/m2 CLR
15:57 28.3 °F 14.9 °F 1014.4 in North 7.4 mph 7.4 mph 44 % 0.0 in 710.0 W/m2 CLR
16:02 28.3 °F 14.9 °F 1014.1 in WNW 14.8 mph 14.8 mph 44 % 0.0 in 686.0 W/m2 CLR
16:07 28.3 °F 15.3 °F 1014.1 in Calm     45 % 0.0 in 701.0 W/m2 CLR
16:13 28.3 °F 14.9 °F 1014.1 in NW 14.8 mph 14.8 mph 44 % 0.0 in 589.0 W/m2 CLR
16:18 27.8 °F 14.4 °F 1014.1 in NNW 11.1 mph 11.1 mph 44 % 0.0 in 396.0 W/m2 CLR
16:23 27.2 °F 14.3 °F 1014.1 in NW 14.8 mph 14.8 mph 45 % 0.0 in 257.0 W/m2 CLR
16:28 27.2 °F 14.6 °F 1014.1 in North 9.3 mph 9.3 mph 46 % 0.0 in 260.0 W/m2 CLR
16:33 27.2 °F 15.9 °F 1014.1 in NNE 1.9 mph 1.9 mph 50 % 0.0 in 237.0 W/m2 CLR
16:38 27.2 °F 16.5 °F 1014.1 in NE 16.7 mph 16.7 mph 52 % 0.0 in 272.0 W/m2 CLR
16:43 27.2 °F 17.1 °F 1014.1 in NE 11.1 mph 11.1 mph 54 % 0.0 in 183.0 W/m2 CLR
16:48 26.7 °F 17.2 °F 1014.1 in ENE 18.5 mph 18.5 mph 56 % 0.0 in 169.0 W/m2 CLR
16:53 26.1 °F 16.9 °F 1014.1 in NE 20.4 mph 20.4 mph 57 % 0.0 in 343.0 W/m2 CLR
16:58 26.7 °F 17.4 °F 1013.8 in NE 9.3 mph 9.3 mph 57 % 0.0 in 420.0 W/m2 CLR
17:03 26.7 °F 17.4 °F 1013.8 in NE 14.8 mph 14.8 mph 57 % 0.0 in 476.0 W/m2 CLR
17:08 27.2 °F 17.7 °F 1013.8 in NE 18.5 mph 18.5 mph 56 % 0.0 in 415.0 W/m2 CLR
17:13 27.2 °F 17.9 °F 1013.8 in NE 11.1 mph 11.1 mph 57 % 0.0 in 540.0 W/m2 CLR
17:18 27.2 °F 17.9 °F 1013.8 in NNE 14.8 mph 14.8 mph 57 % 0.0 in 480.0 W/m2 CLR
17:23 27.2 °F 17.7 °F 1013.8 in ENE 14.5 mph 14.5 mph 56 % 0.0 in 225.0 W/m2 CLR
17:28 26.7 °F 17.4 °F 1013.8 in NNE 14.8 mph 14.8 mph 57 % 0.0 in 244.0 W/m2 CLR
17:33 26.7 °F 17.4 °F 1013.8 in NE 18.5 mph 18.5 mph 57 % 0.0 in 142.0 W/m2 CLR
17:38 26.1 °F 17.2 °F 1013.8 in NE 8.0 mph 8.0 mph 58 % 0.0 in 128.0 W/m2 CLR
17:43 26.1 °F 16.9 °F 1013.8 in ENE 5.6 mph   57 % 0.0 in 86.0 W/m2 CLR
17:48 26.1 °F 16.9 °F 1013.8 in ENE 9.7 mph 9.7 mph 57 % 0.0 in 60.0 W/m2 CLR
17:53 25.6 °F 16.4 °F 1013.8 in East 11.1 mph 11.1 mph 57 % 0.0 in 35.0 W/m2 SCT
17:58 25.6 °F 16.9 °F 1013.8 in ENE 12.9 mph 12.9 mph 59 % 0.0 in 25.0 W/m2 BKN
18:03 25.6 °F 16.9 °F 1013.8 in Calm     59 % 0.0 in 18.0 W/m2 BKN
18:08 25.0 °F 16.2 °F 1013.8 in NNE 5.6 mph 5.6 mph 58 % 0.0 in 11.0 W/m2 BKN
18:13 25.0 °F 16.2 °F 1013.8 in Calm     58 % 0.0 in 5.0 W/m2 BKN
18:18 25.0 °F 17.9 °F 1014.4 in West 18.5 mph 18.5 mph 65 % 0.0 in 0.0 W/m2 BKN
18:23 23.9 °F 17.8 °F 1014.4 in SW 19.3 mph 19.3 mph 69 % 0.0 in 0.0 W/m2 OVC
18:28 23.3 °F 18.4 °F 1014.8 in West 38.9 mph 38.9 mph 74 % 0.3 in 0.0 W/m2 RA
18:33 21.7 °F 18.1 °F 1015.8 in SW 33.3 mph 33.3 mph 80 % 3.3 in 0.0 W/m2 RA
18:38 20.0 °F 17.0 °F 1016.1 in SW 18.5 mph 18.5 mph 83 % 10.9 in 7.0 W/m2 RA
18:48 18.3 °F 16.1 °F 1015.5 in North 8.0 mph 8.0 mph 87 % 21.1 in 47.0 W/m2 RA
18:53 18.3 °F 16.3 °F 1015.5 in NNW 5.6 mph   88 % 22.1 in 60.0 W/m2 RA
18:59 18.3 °F 16.5 °F 1015.5 in Calm     89 % 22.4 in 67.0 W/m2 RA
19:04 18.3 °F 16.7 °F 1015.1 in Calm     90 % 22.4 in 60.0 W/m2 SCT
19:09 18.3 °F 16.8 °F 1015.1 in Calm     91 % 22.4 in 35.0 W/m2 SCT
19:14 18.3 °F 16.8 °F 1015.1 in Calm     91 % 22.4 in 25.0 W/m2 BKN
19:19 18.3 °F 16.8 °F 1015.5 in Calm     91 % 22.4 in 14.0 W/m2 BKN
19:24 18.9 °F 17.4 °F 1015.5 in Calm     91 % 22.4 in 7.0 W/m2 BKN
19:29 18.9 °F 17.4 °F 1015.5 in Calm     91 % 22.1 in 5.0 W/m2 BKN
19:34 18.9 °F 17.4 °F 1015.8 in SW 18.5 mph 18.5 mph 91 % 19.3 in 0.0 W/m2 BKN
19:39 18.9 °F 17.4 °F 1015.8 in WSW 16.7 mph 16.7 mph 91 % 10.7 in 0.0 W/m2 RA
19:44 18.9 °F 17.4 °F 1015.8 in WSW 18.5 mph 18.5 mph 91 % 6.1 in 5.0 W/m2 RA
19:49 18.9 °F 17.4 °F 1015.8 in SW 18.5 mph 18.5 mph 91 % 6.9 in 9.0 W/m2 RA
19:54 18.9 °F 17.4 °F 1015.5 in Calm     91 % 7.6 in 18.0 W/m2 RA
19:59 18.9 °F 17.4 °F 1015.1 in Calm     91 % 7.6 in 25.0 W/m2 RA
20:04 18.3 °F 16.8 °F 1015.5 in Calm     91 % 7.6 in 23.0 W/m2 BKN
20:09 18.3 °F 16.8 °F 1015.5 in Calm     91 % 7.6 in 21.0 W/m2 BKN
20:14 18.9 °F 17.6 °F 1015.5 in Calm     92 % 7.6 in 21.0 W/m2 BKN
20:19 18.9 °F 17.6 °F 1015.5 in Calm     92 % 7.6 in 16.0 W/m2 BKN
20:24 18.9 °F 17.6 °F 1015.5 in Calm     92 % 7.6 in 14.0 W/m2 BKN
20:29 18.3 °F 17.0 °F 1015.5 in Calm     92 % 7.6 in 9.0 W/m2 BKN
20:34 18.3 °F 17.0 °F 1015.5 in Calm     92 % 7.6 in 0.0 W/m2 OVC
20:39 18.3 °F 17.0 °F 1015.5 in Calm     92 % 6.3 in 0.0 W/m2 OVC
20:44 18.3 °F 17.0 °F 1015.8 in ESE 1.6 mph   92 % 5.3 in 0.0 W/m2 OVC
20:49 18.3 °F 17.0 °F 1015.5 in Calm     92 % 1.5 in 0.0 W/m2 CLR
20:54 18.3 °F 17.0 °F 1015.5 in Calm     92 % 0.3 in 0.0 W/m2 CLR
21:04 18.3 °F 17.0 °F 1015.8 in Calm     92 % 0.0 in 0.0 W/m2 CLR
21:09 18.3 °F 17.0 °F 1015.8 in Calm     92 % 0.0 in 0.0 W/m2 CLR
21:14 17.8 °F 16.4 °F 1015.8 in Calm     92 % 0.0 in 0.0 W/m2 CLR
21:19 17.8 °F 16.4 °F 1015.8 in Calm     92 % 0.0 in 0.0 W/m2 CLR
21:24 18.3 °F 17.0 °F 1015.8 in Calm     92 % 0.0 in 0.0 W/m2 CLR
21:29 17.8 °F 16.4 °F 1015.8 in Calm     92 % 0.0 in 0.0 W/m2 CLR
21:34 17.8 °F 16.4 °F 1015.8 in Calm     92 % 0.0 in 0.0 W/m2 CLR
21:39 17.8 °F 16.4 °F 1015.8 in ESE 14.5 mph 14.5 mph 92 % 0.0 in 0.0 W/m2 CLR
21:44 17.8 °F 16.4 °F 1015.8 in SE 5.6 mph   92 % 0.0 in 0.0 W/m2 CLR
21:49 17.8 °F 16.3 °F 1015.8 in SSE 11.1 mph 11.1 mph 91 % 0.0 in 0.0 W/m2 CLR
21:54 17.8 °F 16.3 °F 1015.8 in Calm     91 % 0.0 in 0.0 W/m2 CLR
21:59 17.8 °F 16.3 °F 1015.8 in Calm     91 % 0.0 in 0.0 W/m2 CLR
22:04 17.8 °F 16.3 °F 1015.8 in Calm     91 % 0.0 in 0.0 W/m2 CLR
22:09 17.8 °F 16.1 °F 1015.8 in Calm     90 % 0.0 in 0.0 W/m2 CLR
22:15 17.8 °F 16.3 °F 1015.8 in Calm     91 % 0.0 in 0.0 W/m2 CLR
22:20 17.8 °F 16.1 °F 1015.8 in Calm     90 % 0.0 in 0.0 W/m2 CLR
22:25 17.8 °F 16.1 °F 1015.8 in Calm     90 % 0.0 in 0.0 W/m2 CLR
22:30 17.8 °F 15.9 °F 1015.8 in Calm     89 % 0.0 in 0.0 W/m2 CLR
22:35 17.2 °F 15.4 °F 1015.8 in Calm     89 % 0.0 in 0.0 W/m2 CLR
22:40 17.2 °F 15.2 °F 1015.8 in Calm     88 % 0.0 in 0.0 W/m2 CLR
22:45 17.2 °F 15.2 °F 1015.8 in Calm     88 % 0.0 in 0.0 W/m2 CLR
22:50 17.2 °F 15.2 °F 1015.8 in Calm     88 % 0.0 in 0.0 W/m2 CLR
22:55 17.2 °F 15.2 °F 1015.8 in Calm     88 % 0.0 in 0.0 W/m2 CLR
23:00 17.2 °F 15.2 °F 1015.8 in Calm     88 % 0.0 in 0.0 W/m2 CLR
23:05 17.2 °F 15.4 °F 1015.8 in Calm     89 % 0.0 in 0.0 W/m2 CLR
23:10 17.2 °F 15.4 °F 1015.8 in Calm     89 % 0.0 in 0.0 W/m2 CLR
23:15 17.2 °F 15.6 °F 1016.1 in Calm     90 % 0.0 in 0.0 W/m2 CLR
23:20 17.2 °F 15.6 °F 1016.1 in Calm     90 % 0.0 in 0.0 W/m2 CLR
23:25 17.2 °F 15.6 °F 1016.1 in Calm     90 % 0.0 in 0.0 W/m2 CLR
23:30 17.2 °F 15.6 °F 1015.8 in Calm     90 % 0.0 in 0.0 W/m2 CLR
23:35 17.2 °F 15.7 °F 1015.8 in Calm     91 % 0.0 in 0.0 W/m2 CLR
23:40 17.2 °F 15.7 °F 1015.8 in Calm     91 % 0.0 in 0.0 W/m2 CLR
23:45 17.2 °F 15.7 °F 1015.8 in Calm     91 % 0.0 in 0.0 W/m2 CLR
23:50 17.2 °F 15.7 °F 1015.8 in Calm     91 % 0.0 in 0.0 W/m2 CLR
23:55 17.2 °F 15.7 °F 1015.8 in Calm     91 % 0.0 in 0.0 W/m2 CLR
Lo Temps de Massalio
Compliments of Weather Underground - 1.25 mb